sensor_id;sensor_type;location;lat;lon;timestamp;P1;durP1;ratioP1;P2;durP2;ratioP2
36189;SDS011;22232;50.914;13.858;2023-07-29T00:02:21;1.60;;;1.50;;
36189;SDS011;22232;50.914;13.858;2023-07-29T00:04:49;1.50;;;1.40;;
36189;SDS011;22232;50.914;13.858;2023-07-29T00:07:17;2.13;;;1.65;;
36189;SDS011;22232;50.914;13.858;2023-07-29T00:09:45;1.52;;;1.42;;
36189;SDS011;22232;50.914;13.858;2023-07-29T00:12:13;1.80;;;1.55;;
36189;SDS011;22232;50.914;13.858;2023-07-29T00:14:40;1.60;;;1.35;;
36189;SDS011;22232;50.914;13.858;2023-07-29T00:17:08;1.85;;;1.73;;
36189;SDS011;22232;50.914;13.858;2023-07-29T00:19:35;2.13;;;1.40;;
36189;SDS011;22232;50.914;13.858;2023-07-29T00:22:04;1.40;;;1.30;;
36189;SDS011;22232;50.914;13.858;2023-07-29T00:24:32;1.55;;;1.40;;
36189;SDS011;22232;50.914;13.858;2023-07-29T00:26:59;1.90;;;1.70;;
36189;SDS011;22232;50.914;13.858;2023-07-29T00:29:27;1.58;;;1.48;;
36189;SDS011;22232;50.914;13.858;2023-07-29T00:31:55;2.03;;;1.70;;
36189;SDS011;22232;50.914;13.858;2023-07-29T00:34:22;1.80;;;1.70;;
36189;SDS011;22232;50.914;13.858;2023-07-29T00:36:50;1.90;;;1.50;;
36189;SDS011;22232;50.914;13.858;2023-07-29T00:39:18;2.03;;;1.60;;
36189;SDS011;22232;50.914;13.858;2023-07-29T00:41:46;2.65;;;2.03;;
36189;SDS011;22232;50.914;13.858;2023-07-29T00:44:14;1.67;;;1.45;;
36189;SDS011;22232;50.914;13.858;2023-07-29T00:46:42;1.52;;;1.42;;
36189;SDS011;22232;50.914;13.858;2023-07-29T00:49:13;2.30;;;1.45;;
36189;SDS011;22232;50.914;13.858;2023-07-29T00:51:41;1.60;;;1.50;;
36189;SDS011;22232;50.914;13.858;2023-07-29T00:54:09;2.35;;;1.33;;
36189;SDS011;22232;50.914;13.858;2023-07-29T00:56:40;2.25;;;1.45;;
36189;SDS011;22232;50.914;13.858;2023-07-29T00:59:07;1.65;;;1.55;;
36189;SDS011;22232;50.914;13.858;2023-07-29T01:01:35;1.50;;;1.40;;
36189;SDS011;22232;50.914;13.858;2023-07-29T01:04:04;2.55;;;1.67;;
36189;SDS011;22232;50.914;13.858;2023-07-29T01:06:41;1.45;;;1.35;;
36189;SDS011;22232;50.914;13.858;2023-07-29T01:12:28;1.90;;;1.75;;
36189;SDS011;22232;50.914;13.858;2023-07-29T01:15:14;1.40;;;1.30;;
36189;SDS011;22232;50.914;13.858;2023-07-29T01:17:48;1.65;;;1.35;;
36189;SDS011;22232;50.914;13.858;2023-07-29T01:20:20;1.50;;;1.40;;
36189;SDS011;22232;50.914;13.858;2023-07-29T01:22:51;1.48;;;1.38;;
36189;SDS011;22232;50.914;13.858;2023-07-29T01:25:19;1.95;;;1.40;;
36189;SDS011;22232;50.914;13.858;2023-07-29T01:27:48;2.05;;;1.38;;
36189;SDS011;22232;50.914;13.858;2023-07-29T01:30:19;1.60;;;1.50;;
36189;SDS011;22232;50.914;13.858;2023-07-29T01:32:54;1.40;;;1.30;;
36189;SDS011;22232;50.914;13.858;2023-07-29T01:35:34;1.60;;;1.50;;
36189;SDS011;22232;50.914;13.858;2023-07-29T01:38:13;1.70;;;1.60;;
36189;SDS011;22232;50.914;13.858;2023-07-29T01:40:45;2.78;;;1.70;;
36189;SDS011;22232;50.914;13.858;2023-07-29T01:43:15;2.00;;;1.40;;
36189;SDS011;22232;50.914;13.858;2023-07-29T01:45:44;1.50;;;1.40;;
36189;SDS011;22232;50.914;13.858;2023-07-29T01:48:12;1.92;;;1.45;;
36189;SDS011;22232;50.914;13.858;2023-07-29T01:50:40;1.75;;;1.65;;
36189;SDS011;22232;50.914;13.858;2023-07-29T01:53:08;3.28;;;2.03;;
36189;SDS011;22232;50.914;13.858;2023-07-29T01:55:35;1.42;;;1.33;;
36189;SDS011;22232;50.914;13.858;2023-07-29T01:58:03;1.65;;;1.45;;
36189;SDS011;22232;50.914;13.858;2023-07-29T02:00:35;1.65;;;1.55;;
36189;SDS011;22232;50.914;13.858;2023-07-29T02:03:02;1.48;;;1.20;;
36189;SDS011;22232;50.914;13.858;2023-07-29T02:05:30;3.13;;;1.67;;
36189;SDS011;22232;50.914;13.858;2023-07-29T02:07:58;2.03;;;1.50;;
36189;SDS011;22232;50.914;13.858;2023-07-29T02:10:26;1.88;;;1.60;;
36189;SDS011;22232;50.914;13.858;2023-07-29T02:12:54;1.55;;;1.42;;
36189;SDS011;22232;50.914;13.858;2023-07-29T02:15:21;1.52;;;1.42;;
36189;SDS011;22232;50.914;13.858;2023-07-29T02:17:49;2.25;;;1.40;;
36189;SDS011;22232;50.914;13.858;2023-07-29T02:20:18;1.65;;;1.20;;
36189;SDS011;22232;50.914;13.858;2023-07-29T02:22:45;1.40;;;1.30;;
36189;SDS011;22232;50.914;13.858;2023-07-29T02:25:15;1.50;;;1.40;;
36189;SDS011;22232;50.914;13.858;2023-07-29T02:27:43;1.35;;;1.25;;
36189;SDS011;22232;50.914;13.858;2023-07-29T02:30:11;1.55;;;1.42;;
36189;SDS011;22232;50.914;13.858;2023-07-29T02:32:39;1.48;;;1.38;;
36189;SDS011;22232;50.914;13.858;2023-07-29T02:35:07;1.27;;;1.20;;
36189;SDS011;22232;50.914;13.858;2023-07-29T02:37:35;2.42;;;1.40;;
36189;SDS011;22232;50.914;13.858;2023-07-29T02:40:03;1.42;;;1.20;;
36189;SDS011;22232;50.914;13.858;2023-07-29T02:42:32;3.80;;;1.20;;
36189;SDS011;22232;50.914;13.858;2023-07-29T02:44:59;1.30;;;1.20;;
36189;SDS011;22232;50.914;13.858;2023-07-29T02:47:27;1.55;;;1.45;;
36189;SDS011;22232;50.914;13.858;2023-07-29T02:49:55;1.40;;;1.30;;
36189;SDS011;22232;50.914;13.858;2023-07-29T02:52:23;1.33;;;1.23;;
36189;SDS011;22232;50.914;13.858;2023-07-29T02:54:50;1.70;;;1.38;;
36189;SDS011;22232;50.914;13.858;2023-07-29T02:57:18;1.30;;;1.20;;
36189;SDS011;22232;50.914;13.858;2023-07-29T02:59:46;1.10;;;1.00;;
36189;SDS011;22232;50.914;13.858;2023-07-29T03:02:13;1.00;;;1.00;;
36189;SDS011;22232;50.914;13.858;2023-07-29T03:04:43;2.28;;;1.10;;
36189;SDS011;22232;50.914;13.858;2023-07-29T03:07:11;1.30;;;1.13;;
36189;SDS011;22232;50.914;13.858;2023-07-29T03:09:39;1.15;;;1.10;;
36189;SDS011;22232;50.914;13.858;2023-07-29T03:12:09;1.13;;;1.02;;
36189;SDS011;22232;50.914;13.858;2023-07-29T03:14:37;1.10;;;1.00;;
36189;SDS011;22232;50.914;13.858;2023-07-29T03:17:04;1.90;;;1.52;;
36189;SDS011;22232;50.914;13.858;2023-07-29T03:19:32;1.65;;;1.08;;
36189;SDS011;22232;50.914;13.858;2023-07-29T03:22:00;1.27;;;1.17;;
36189;SDS011;22232;50.914;13.858;2023-07-29T03:24:28;2.03;;;1.08;;
36189;SDS011;22232;50.914;13.858;2023-07-29T03:26:56;1.17;;;1.17;;
36189;SDS011;22232;50.914;13.858;2023-07-29T03:29:24;1.40;;;1.00;;
36189;SDS011;22232;50.914;13.858;2023-07-29T03:31:51;2.17;;;1.23;;
36189;SDS011;22232;50.914;13.858;2023-07-29T03:34:19;0.93;;;0.90;;
36189;SDS011;22232;50.914;13.858;2023-07-29T03:36:47;1.40;;;0.90;;
36189;SDS011;22232;50.914;13.858;2023-07-29T03:39:15;2.65;;;1.25;;
36189;SDS011;22232;50.914;13.858;2023-07-29T03:41:43;0.80;;;0.80;;
36189;SDS011;22232;50.914;13.858;2023-07-29T03:44:10;1.08;;;0.98;;
36189;SDS011;22232;50.914;13.858;2023-07-29T03:46:38;0.90;;;0.90;;
36189;SDS011;22232;50.914;13.858;2023-07-29T03:49:08;3.15;;;0.80;;
36189;SDS011;22232;50.914;13.858;2023-07-29T03:51:35;0.80;;;0.65;;
36189;SDS011;22232;50.914;13.858;2023-07-29T03:54:04;0.85;;;0.85;;
36189;SDS011;22232;50.914;13.858;2023-07-29T03:56:33;1.05;;;1.00;;
36189;SDS011;22232;50.914;13.858;2023-07-29T03:59:06;0.80;;;0.80;;
36189;SDS011;22232;50.914;13.858;2023-07-29T04:01:34;4.43;;;1.20;;
36189;SDS011;22232;50.914;13.858;2023-07-29T04:04:02;0.70;;;0.70;;
36189;SDS011;22232;50.914;13.858;2023-07-29T04:06:31;1.75;;;0.90;;
36189;SDS011;22232;50.914;13.858;2023-07-29T04:09:00;1.70;;;0.73;;
36189;SDS011;22232;50.914;13.858;2023-07-29T04:11:28;0.93;;;0.82;;
36189;SDS011;22232;50.914;13.858;2023-07-29T04:13:56;0.88;;;0.88;;
36189;SDS011;22232;50.914;13.858;2023-07-29T04:16:23;1.42;;;0.75;;
36189;SDS011;22232;50.914;13.858;2023-07-29T04:18:51;1.85;;;0.60;;
36189;SDS011;22232;50.914;13.858;2023-07-29T04:21:19;0.65;;;0.65;;
36189;SDS011;22232;50.914;13.858;2023-07-29T04:23:47;0.68;;;0.68;;
36189;SDS011;22232;50.914;13.858;2023-07-29T04:26:15;0.88;;;0.70;;
36189;SDS011;22232;50.914;13.858;2023-07-29T04:28:43;0.60;;;0.60;;
36189;SDS011;22232;50.914;13.858;2023-07-29T04:31:11;1.15;;;0.60;;
36189;SDS011;22232;50.914;13.858;2023-07-29T04:33:38;1.85;;;0.50;;
36189;SDS011;22232;50.914;13.858;2023-07-29T04:36:06;0.52;;;0.52;;
36189;SDS011;22232;50.914;13.858;2023-07-29T04:38:34;0.90;;;0.70;;
36189;SDS011;22232;50.914;13.858;2023-07-29T04:41:04;0.70;;;0.70;;
36189;SDS011;22232;50.914;13.858;2023-07-29T04:43:34;0.70;;;0.70;;
36189;SDS011;22232;50.914;13.858;2023-07-29T04:46:01;0.95;;;0.70;;
36189;SDS011;22232;50.914;13.858;2023-07-29T04:48:30;1.85;;;0.70;;
36189;SDS011;22232;50.914;13.858;2023-07-29T04:50:58;0.65;;;0.65;;
36189;SDS011;22232;50.914;13.858;2023-07-29T04:53:25;0.60;;;0.60;;
36189;SDS011;22232;50.914;13.858;2023-07-29T04:55:53;0.73;;;0.70;;
36189;SDS011;22232;50.914;13.858;2023-07-29T04:58:21;0.80;;;0.80;;
36189;SDS011;22232;50.914;13.858;2023-07-29T05:00:49;0.80;;;0.60;;
36189;SDS011;22232;50.914;13.858;2023-07-29T05:03:17;0.77;;;0.77;;
36189;SDS011;22232;50.914;13.858;2023-07-29T05:05:45;0.60;;;0.60;;
36189;SDS011;22232;50.914;13.858;2023-07-29T05:08:13;1.02;;;0.90;;
36189;SDS011;22232;50.914;13.858;2023-07-29T05:10:41;0.80;;;0.80;;
36189;SDS011;22232;50.914;13.858;2023-07-29T05:13:09;0.73;;;0.73;;
36189;SDS011;22232;50.914;13.858;2023-07-29T05:15:38;1.13;;;1.02;;
36189;SDS011;22232;50.914;13.858;2023-07-29T05:18:05;1.25;;;0.80;;
36189;SDS011;22232;50.914;13.858;2023-07-29T05:20:33;0.70;;;0.70;;
36189;SDS011;22232;50.914;13.858;2023-07-29T05:23:01;0.80;;;0.80;;
36189;SDS011;22232;50.914;13.858;2023-07-29T05:25:29;0.70;;;0.57;;
36189;SDS011;22232;50.914;13.858;2023-07-29T05:27:57;1.30;;;1.00;;
36189;SDS011;22232;50.914;13.858;2023-07-29T05:30:25;0.73;;;0.73;;
36189;SDS011;22232;50.914;13.858;2023-07-29T05:32:54;1.58;;;0.88;;
36189;SDS011;22232;50.914;13.858;2023-07-29T05:35:22;0.90;;;0.90;;
36189;SDS011;22232;50.914;13.858;2023-07-29T05:37:50;0.88;;;0.88;;
36189;SDS011;22232;50.914;13.858;2023-07-29T05:40:17;1.05;;;1.00;;
36189;SDS011;22232;50.914;13.858;2023-07-29T05:42:45;0.70;;;0.70;;
36189;SDS011;22232;50.914;13.858;2023-07-29T05:45:13;0.80;;;0.80;;
36189;SDS011;22232;50.914;13.858;2023-07-29T05:47:41;0.80;;;0.80;;
36189;SDS011;22232;50.914;13.858;2023-07-29T05:50:08;0.73;;;0.73;;
36189;SDS011;22232;50.914;13.858;2023-07-29T05:52:36;1.00;;;0.75;;
36189;SDS011;22232;50.914;13.858;2023-07-29T05:55:04;0.88;;;0.88;;
36189;SDS011;22232;50.914;13.858;2023-07-29T05:57:32;1.27;;;0.70;;
36189;SDS011;22232;50.914;13.858;2023-07-29T06:00:00;1.10;;;0.90;;
36189;SDS011;22232;50.914;13.858;2023-07-29T06:02:28;1.13;;;1.10;;
36189;SDS011;22232;50.914;13.858;2023-07-29T06:04:56;1.00;;;0.73;;
36189;SDS011;22232;50.914;13.858;2023-07-29T06:07:23;2.53;;;1.00;;
36189;SDS011;22232;50.914;13.858;2023-07-29T06:09:55;1.00;;;0.60;;
36189;SDS011;22232;50.914;13.858;2023-07-29T06:12:22;0.98;;;0.70;;
36189;SDS011;22232;50.914;13.858;2023-07-29T06:14:50;0.80;;;0.80;;
36189;SDS011;22232;50.914;13.858;2023-07-29T06:17:18;0.85;;;0.75;;
36189;SDS011;22232;50.914;13.858;2023-07-29T06:19:46;0.80;;;0.80;;
36189;SDS011;22232;50.914;13.858;2023-07-29T06:22:14;0.80;;;0.80;;
36189;SDS011;22232;50.914;13.858;2023-07-29T06:24:42;3.47;;;0.88;;
36189;SDS011;22232;50.914;13.858;2023-07-29T06:27:10;0.63;;;0.63;;
36189;SDS011;22232;50.914;13.858;2023-07-29T06:29:37;0.70;;;0.70;;
36189;SDS011;22232;50.914;13.858;2023-07-29T06:32:05;0.70;;;0.70;;
36189;SDS011;22232;50.914;13.858;2023-07-29T06:34:33;2.58;;;0.93;;
36189;SDS011;22232;50.914;13.858;2023-07-29T06:37:01;1.88;;;0.90;;
36189;SDS011;22232;50.914;13.858;2023-07-29T06:39:28;0.65;;;0.65;;
36189;SDS011;22232;50.914;13.858;2023-07-29T06:41:56;0.90;;;0.90;;
36189;SDS011;22232;50.914;13.858;2023-07-29T06:44:24;1.20;;;0.90;;
36189;SDS011;22232;50.914;13.858;2023-07-29T06:46:51;0.98;;;0.98;;
36189;SDS011;22232;50.914;13.858;2023-07-29T06:49:19;1.70;;;1.10;;
36189;SDS011;22232;50.914;13.858;2023-07-29T06:51:47;1.58;;;0.98;;
36189;SDS011;22232;50.914;13.858;2023-07-29T06:54:16;1.17;;;1.05;;
36189;SDS011;22232;50.914;13.858;2023-07-29T06:56:44;0.93;;;0.90;;
36189;SDS011;22232;50.914;13.858;2023-07-29T06:59:12;0.95;;;0.95;;
36189;SDS011;22232;50.914;13.858;2023-07-29T07:01:40;1.88;;;0.90;;
36189;SDS011;22232;50.914;13.858;2023-07-29T07:04:07;1.10;;;1.00;;
36189;SDS011;22232;50.914;13.858;2023-07-29T07:06:35;0.80;;;0.80;;
36189;SDS011;22232;50.914;13.858;2023-07-29T07:09:03;0.98;;;0.98;;
36189;SDS011;22232;50.914;13.858;2023-07-29T07:11:31;0.60;;;0.60;;
36189;SDS011;22232;50.914;13.858;2023-07-29T07:13:58;1.98;;;0.98;;
36189;SDS011;22232;50.914;13.858;2023-07-29T07:16:26;1.13;;;0.90;;
36189;SDS011;22232;50.914;13.858;2023-07-29T07:18:56;1.30;;;0.85;;
36189;SDS011;22232;50.914;13.858;2023-07-29T07:21:24;1.30;;;0.70;;
36189;SDS011;22232;50.914;13.858;2023-07-29T07:23:52;1.58;;;0.90;;
36189;SDS011;22232;50.914;13.858;2023-07-29T07:26:20;1.00;;;1.00;;
36189;SDS011;22232;50.914;13.858;2023-07-29T07:28:47;2.25;;;0.90;;
36189;SDS011;22232;50.914;13.858;2023-07-29T07:31:15;0.70;;;0.70;;
36189;SDS011;22232;50.914;13.858;2023-07-29T07:33:46;1.30;;;0.80;;
36189;SDS011;22232;50.914;13.858;2023-07-29T07:36:14;0.90;;;0.90;;
36189;SDS011;22232;50.914;13.858;2023-07-29T07:38:44;1.15;;;1.05;;
36189;SDS011;22232;50.914;13.858;2023-07-29T07:41:12;0.82;;;0.82;;
36189;SDS011;22232;50.914;13.858;2023-07-29T07:43:39;0.98;;;0.77;;
36189;SDS011;22232;50.914;13.858;2023-07-29T07:46:07;0.82;;;0.82;;
36189;SDS011;22232;50.914;13.858;2023-07-29T07:48:35;1.00;;;0.82;;
36189;SDS011;22232;50.914;13.858;2023-07-29T07:51:12;0.98;;;0.82;;
36189;SDS011;22232;50.914;13.858;2023-07-29T07:53:41;0.80;;;0.80;;
36189;SDS011;22232;50.914;13.858;2023-07-29T07:56:09;0.70;;;0.70;;
36189;SDS011;22232;50.914;13.858;2023-07-29T07:58:37;1.02;;;0.88;;
36189;SDS011;22232;50.914;13.858;2023-07-29T08:01:06;0.65;;;0.63;;
36189;SDS011;22232;50.914;13.858;2023-07-29T08:03:35;1.50;;;0.80;;
36189;SDS011;22232;50.914;13.858;2023-07-29T08:06:03;1.58;;;0.73;;
36189;SDS011;22232;50.914;13.858;2023-07-29T08:08:34;0.73;;;0.73;;
36189;SDS011;22232;50.914;13.858;2023-07-29T08:11:01;0.65;;;0.65;;
36189;SDS011;22232;50.914;13.858;2023-07-29T08:13:29;0.80;;;0.70;;
36189;SDS011;22232;50.914;13.858;2023-07-29T08:15:57;0.85;;;0.80;;
36189;SDS011;22232;50.914;13.858;2023-07-29T08:18:25;1.00;;;0.80;;
36189;SDS011;22232;50.914;13.858;2023-07-29T08:20:57;1.13;;;0.75;;
36189;SDS011;22232;50.914;13.858;2023-07-29T08:23:26;0.52;;;0.52;;
36189;SDS011;22232;50.914;13.858;2023-07-29T08:25:54;0.50;;;0.50;;
36189;SDS011;22232;50.914;13.858;2023-07-29T08:28:28;0.50;;;0.50;;
36189;SDS011;22232;50.914;13.858;2023-07-29T08:31:01;1.67;;;0.50;;
36189;SDS011;22232;50.914;13.858;2023-07-29T08:33:30;0.57;;;0.57;;
36189;SDS011;22232;50.914;13.858;2023-07-29T08:35:58;0.68;;;0.68;;
36189;SDS011;22232;50.914;13.858;2023-07-29T08:38:26;0.50;;;0.50;;
36189;SDS011;22232;50.914;13.858;2023-07-29T08:43:32;0.98;;;0.70;;
36189;SDS011;22232;50.914;13.858;2023-07-29T08:46:00;1.02;;;0.70;;
36189;SDS011;22232;50.914;13.858;2023-07-29T08:48:29;1.35;;;0.80;;
36189;SDS011;22232;50.914;13.858;2023-07-29T08:51:04;0.63;;;0.63;;
36189;SDS011;22232;50.914;13.858;2023-07-29T08:53:32;0.70;;;0.70;;
36189;SDS011;22232;50.914;13.858;2023-07-29T08:56:01;0.73;;;0.70;;
36189;SDS011;22232;50.914;13.858;2023-07-29T08:58:29;1.48;;;1.30;;
36189;SDS011;22232;50.914;13.858;2023-07-29T09:00:57;1.10;;;1.00;;
36189;SDS011;22232;50.914;13.858;2023-07-29T09:03:25;1.10;;;1.00;;
36189;SDS011;22232;50.914;13.858;2023-07-29T09:05:53;3.80;;;1.50;;
36189;SDS011;22232;50.914;13.858;2023-07-29T09:08:25;1.70;;;1.60;;
36189;SDS011;22232;50.914;13.858;2023-07-29T09:10:54;1.75;;;1.55;;
36189;SDS011;22232;50.914;13.858;2023-07-29T09:13:23;1.63;;;1.40;;
36189;SDS011;22232;50.914;13.858;2023-07-29T09:15:55;1.40;;;1.30;;
36189;SDS011;22232;50.914;13.858;2023-07-29T09:18:25;1.53;;;1.40;;
36189;SDS011;22232;50.914;13.858;2023-07-29T09:20:53;2.10;;;1.02;;
36189;SDS011;22232;50.914;13.858;2023-07-29T09:23:21;1.15;;;0.80;;
36189;SDS011;22232;50.914;13.858;2023-07-29T09:25:49;1.33;;;0.80;;
36189;SDS011;22232;50.914;13.858;2023-07-29T09:28:17;1.10;;;1.00;;
36189;SDS011;22232;50.914;13.858;2023-07-29T09:30:46;2.35;;;2.05;;
36189;SDS011;22232;50.914;13.858;2023-07-29T09:33:14;1.85;;;1.75;;
36189;SDS011;22232;50.914;13.858;2023-07-29T09:35:42;2.20;;;1.83;;
36189;SDS011;22232;50.914;13.858;2023-07-29T09:38:13;2.30;;;2.10;;
36189;SDS011;22232;50.914;13.858;2023-07-29T09:40:42;2.37;;;2.20;;
36189;SDS011;22232;50.914;13.858;2023-07-29T09:43:12;2.83;;;2.25;;
36189;SDS011;22232;50.914;13.858;2023-07-29T09:45:41;2.72;;;2.53;;
36189;SDS011;22232;50.914;13.858;2023-07-29T09:48:09;2.40;;;2.20;;
36189;SDS011;22232;50.914;13.858;2023-07-29T09:50:38;2.60;;;2.13;;
36189;SDS011;22232;50.914;13.858;2023-07-29T09:53:06;2.72;;;2.53;;
36189;SDS011;22232;50.914;13.858;2023-07-29T09:55:34;2.22;;;2.10;;
36189;SDS011;22232;50.914;13.858;2023-07-29T09:58:02;2.45;;;2.10;;
36189;SDS011;22232;50.914;13.858;2023-07-29T10:00:34;2.00;;;1.90;;
36189;SDS011;22232;50.914;13.858;2023-07-29T10:03:02;3.08;;;2.05;;
36189;SDS011;22232;50.914;13.858;2023-07-29T10:05:31;1.95;;;1.85;;
36189;SDS011;22232;50.914;13.858;2023-07-29T10:08:02;2.20;;;1.98;;
36189;SDS011;22232;50.914;13.858;2023-07-29T10:10:30;2.35;;;1.58;;
36189;SDS011;22232;50.914;13.858;2023-07-29T10:12:58;1.95;;;1.85;;
36189;SDS011;22232;50.914;13.858;2023-07-29T10:15:26;1.60;;;1.50;;
36189;SDS011;22232;50.914;13.858;2023-07-29T10:17:54;2.28;;;2.00;;
36189;SDS011;22232;50.914;13.858;2023-07-29T10:20:23;2.45;;;1.70;;
36189;SDS011;22232;50.914;13.858;2023-07-29T10:22:50;1.73;;;1.30;;
36189;SDS011;22232;50.914;13.858;2023-07-29T10:25:23;0.85;;;0.85;;
36189;SDS011;22232;50.914;13.858;2023-07-29T10:27:53;1.67;;;1.23;;
36189;SDS011;22232;50.914;13.858;2023-07-29T10:30:24;1.30;;;1.30;;
36189;SDS011;22232;50.914;13.858;2023-07-29T10:32:52;2.45;;;1.42;;
36189;SDS011;22232;50.914;13.858;2023-07-29T10:35:21;1.13;;;1.10;;
36189;SDS011;22232;50.914;13.858;2023-07-29T10:37:49;1.00;;;1.00;;
36189;SDS011;22232;50.914;13.858;2023-07-29T10:40:18;2.33;;;1.33;;
36189;SDS011;22232;50.914;13.858;2023-07-29T10:42:59;17.48;;;3.40;;
36189;SDS011;22232;50.914;13.858;2023-07-29T10:45:41;7.25;;;1.83;;
36189;SDS011;22232;50.914;13.858;2023-07-29T10:48:10;2.55;;;1.30;;
36189;SDS011;22232;50.914;13.858;2023-07-29T10:50:39;2.65;;;1.40;;
36189;SDS011;22232;50.914;13.858;2023-07-29T10:53:07;4.60;;;1.40;;
36189;SDS011;22232;50.914;13.858;2023-07-29T10:55:35;1.98;;;1.08;;
36189;SDS011;22232;50.914;13.858;2023-07-29T10:58:11;1.30;;;1.20;;
36189;SDS011;22232;50.914;13.858;2023-07-29T11:00:41;1.40;;;1.30;;
36189;SDS011;22232;50.914;13.858;2023-07-29T11:03:11;1.20;;;1.10;;
36189;SDS011;22232;50.914;13.858;2023-07-29T11:11:07;2.42;;;0.80;;
36189;SDS011;22232;50.914;13.858;2023-07-29T11:13:39;1.08;;;0.75;;
36189;SDS011;22232;50.914;13.858;2023-07-29T11:16:09;1.48;;;0.93;;
36189;SDS011;22232;50.914;13.858;2023-07-29T11:18:37;0.88;;;0.70;;
36189;SDS011;22232;50.914;13.858;2023-07-29T11:21:06;1.08;;;0.80;;
36189;SDS011;22232;50.914;13.858;2023-07-29T11:23:35;2.10;;;0.90;;
36189;SDS011;22232;50.914;13.858;2023-07-29T11:26:04;1.45;;;0.70;;
36189;SDS011;22232;50.914;13.858;2023-07-29T11:28:37;1.42;;;0.73;;
36189;SDS011;22232;50.914;13.858;2023-07-29T11:31:06;0.95;;;0.85;;
36189;SDS011;22232;50.914;13.858;2023-07-29T11:33:34;1.23;;;0.70;;
36189;SDS011;22232;50.914;13.858;2023-07-29T11:36:02;1.95;;;0.90;;
36189;SDS011;22232;50.914;13.858;2023-07-29T11:38:30;1.85;;;0.93;;
36189;SDS011;22232;50.914;13.858;2023-07-29T11:41:04;1.52;;;0.73;;
36189;SDS011;22232;50.914;13.858;2023-07-29T11:43:35;1.75;;;1.00;;
36189;SDS011;22232;50.914;13.858;2023-07-29T11:46:04;2.85;;;0.80;;
36189;SDS011;22232;50.914;13.858;2023-07-29T11:48:32;2.42;;;1.10;;
36189;SDS011;22232;50.914;13.858;2023-07-29T11:51:01;1.40;;;1.00;;
36189;SDS011;22232;50.914;13.858;2023-07-29T11:53:30;1.38;;;1.00;;
36189;SDS011;22232;50.914;13.858;2023-07-29T11:55:58;3.08;;;1.30;;
36189;SDS011;22232;50.914;13.858;2023-07-29T11:58:26;2.25;;;1.00;;
36189;SDS011;22232;50.914;13.858;2023-07-29T12:00:54;1.55;;;1.00;;
36189;SDS011;22232;50.914;13.858;2023-07-29T12:03:23;2.72;;;1.17;;
36189;SDS011;22232;50.914;13.858;2023-07-29T12:05:52;1.33;;;1.00;;
36189;SDS011;22232;50.914;13.858;2023-07-29T12:08:20;3.88;;;0.90;;
36189;SDS011;22232;50.914;13.858;2023-07-29T12:10:47;2.22;;;1.23;;
36189;SDS011;22232;50.914;13.858;2023-07-29T12:13:16;2.08;;;1.27;;
36189;SDS011;22232;50.914;13.858;2023-07-29T12:15:43;1.45;;;1.17;;
36189;SDS011;22232;50.914;13.858;2023-07-29T12:18:11;1.38;;;0.90;;
36189;SDS011;22232;50.914;13.858;2023-07-29T12:20:39;1.50;;;1.33;;
36189;SDS011;22232;50.914;13.858;2023-07-29T12:23:07;1.02;;;1.00;;
36189;SDS011;22232;50.914;13.858;2023-07-29T12:25:35;1.08;;;0.90;;
36189;SDS011;22232;50.914;13.858;2023-07-29T12:28:04;1.33;;;1.13;;
36189;SDS011;22232;50.914;13.858;2023-07-29T12:30:32;1.33;;;1.23;;
36189;SDS011;22232;50.914;13.858;2023-07-29T12:33:00;1.50;;;1.17;;
36189;SDS011;22232;50.914;13.858;2023-07-29T12:35:37;0.63;;;0.60;;
36189;SDS011;22232;50.914;13.858;2023-07-29T12:38:05;0.85;;;0.60;;
36189;SDS011;22232;50.914;13.858;2023-07-29T12:40:37;1.10;;;1.00;;
36189;SDS011;22232;50.914;13.858;2023-07-29T12:43:05;0.80;;;0.80;;
36189;SDS011;22232;50.914;13.858;2023-07-29T12:45:36;0.90;;;0.75;;
36189;SDS011;22232;50.914;13.858;2023-07-29T12:48:07;0.88;;;0.88;;
36189;SDS011;22232;50.914;13.858;2023-07-29T12:50:36;1.20;;;1.02;;
36189;SDS011;22232;50.914;13.858;2023-07-29T12:53:07;2.10;;;0.93;;
36189;SDS011;22232;50.914;13.858;2023-07-29T12:55:37;2.72;;;0.90;;
36189;SDS011;22232;50.914;13.858;2023-07-29T12:58:05;1.80;;;1.00;;
36189;SDS011;22232;50.914;13.858;2023-07-29T13:00:33;1.23;;;0.77;;
36189;SDS011;22232;50.914;13.858;2023-07-29T13:03:01;0.98;;;0.80;;
36189;SDS011;22232;50.914;13.858;2023-07-29T13:05:29;1.05;;;0.90;;
36189;SDS011;22232;50.914;13.858;2023-07-29T13:07:56;1.30;;;0.95;;
36189;SDS011;22232;50.914;13.858;2023-07-29T13:10:24;0.70;;;0.70;;
36189;SDS011;22232;50.914;13.858;2023-07-29T13:12:52;0.85;;;0.85;;
36189;SDS011;22232;50.914;13.858;2023-07-29T13:15:19;2.25;;;0.90;;
36189;SDS011;22232;50.914;13.858;2023-07-29T13:17:47;0.80;;;0.80;;
36189;SDS011;22232;50.914;13.858;2023-07-29T13:20:15;1.30;;;0.77;;
36189;SDS011;22232;50.914;13.858;2023-07-29T13:22:43;0.70;;;0.70;;
36189;SDS011;22232;50.914;13.858;2023-07-29T13:25:10;2.08;;;0.98;;
36189;SDS011;22232;50.914;13.858;2023-07-29T13:27:38;0.98;;;0.95;;
36189;SDS011;22232;50.914;13.858;2023-07-29T13:30:06;1.13;;;1.05;;
36189;SDS011;22232;50.914;13.858;2023-07-29T13:32:35;2.00;;;1.00;;
36189;SDS011;22232;50.914;13.858;2023-07-29T13:35:02;1.35;;;1.20;;
36189;SDS011;22232;50.914;13.858;2023-07-29T13:37:30;1.95;;;1.30;;
36189;SDS011;22232;50.914;13.858;2023-07-29T13:39:58;1.08;;;0.88;;
36189;SDS011;22232;50.914;13.858;2023-07-29T13:42:26;3.92;;;1.10;;
36189;SDS011;22232;50.914;13.858;2023-07-29T13:44:54;1.02;;;0.93;;
36189;SDS011;22232;50.914;13.858;2023-07-29T13:47:21;3.13;;;0.82;;
36189;SDS011;22232;50.914;13.858;2023-07-29T13:49:49;1.35;;;0.85;;
36189;SDS011;22232;50.914;13.858;2023-07-29T13:52:17;0.95;;;0.90;;
36189;SDS011;22232;50.914;13.858;2023-07-29T13:54:44;1.17;;;0.98;;
36189;SDS011;22232;50.914;13.858;2023-07-29T13:57:12;3.28;;;1.10;;
36189;SDS011;22232;50.914;13.858;2023-07-29T13:59:40;2.65;;;0.90;;
36189;SDS011;22232;50.914;13.858;2023-07-29T14:02:07;1.17;;;1.02;;
36189;SDS011;22232;50.914;13.858;2023-07-29T14:04:35;0.75;;;0.75;;
36189;SDS011;22232;50.914;13.858;2023-07-29T14:07:03;0.80;;;0.80;;
36189;SDS011;22232;50.914;13.858;2023-07-29T14:09:32;0.90;;;0.90;;
36189;SDS011;22232;50.914;13.858;2023-07-29T14:11:59;0.70;;;0.70;;
36189;SDS011;22232;50.914;13.858;2023-07-29T14:14:27;0.80;;;0.80;;
36189;SDS011;22232;50.914;13.858;2023-07-29T14:16:55;0.70;;;0.65;;
36189;SDS011;22232;50.914;13.858;2023-07-29T14:19:23;2.30;;;0.80;;
36189;SDS011;22232;50.914;13.858;2023-07-29T14:21:51;1.45;;;0.85;;
36189;SDS011;22232;50.914;13.858;2023-07-29T14:24:19;0.90;;;0.90;;
36189;SDS011;22232;50.914;13.858;2023-07-29T14:26:47;1.27;;;1.17;;
36189;SDS011;22232;50.914;13.858;2023-07-29T14:29:14;0.60;;;0.60;;
36189;SDS011;22232;50.914;13.858;2023-07-29T14:31:42;1.45;;;0.70;;
36189;SDS011;22232;50.914;13.858;2023-07-29T14:34:10;1.05;;;0.70;;
36189;SDS011;22232;50.914;13.858;2023-07-29T14:36:38;1.17;;;1.00;;
36189;SDS011;22232;50.914;13.858;2023-07-29T14:39:06;0.65;;;0.60;;
36189;SDS011;22232;50.914;13.858;2023-07-29T14:41:34;3.28;;;1.27;;
36189;SDS011;22232;50.914;13.858;2023-07-29T14:44:01;0.80;;;0.77;;
36189;SDS011;22232;50.914;13.858;2023-07-29T14:46:29;0.80;;;0.80;;
36189;SDS011;22232;50.914;13.858;2023-07-29T14:48:57;0.90;;;0.90;;
36189;SDS011;22232;50.914;13.858;2023-07-29T14:51:25;0.95;;;0.90;;
36189;SDS011;22232;50.914;13.858;2023-07-29T14:53:53;1.38;;;1.20;;